1992 NEVILLE (1992096S08132)


On this page: IBTrACS data - Map and Plots - Positions - Intensities - Original source data

Summary

Start Apr 4
End Apr 15
Basin SI
LMI 120 kt
Sources jtwc_sh
bom
neumann
In WMO? Yes
Previous storm 1992 IRNA (SI)
Previous in basin 1992 IRNA (SI)
Concurrent storms 1992 IRNA (SI)
1992 NEVILLE (SI)
Next in basin Missing
Next storm 1992 SUBTROP (NA)

top of page IBTrACS Data: File Access

top of page HURSAT Data: File Access

Image of storm

top of page Plots:

Map of storm track will not appear if FTP is down
Time series of cyclone Maximum Sustained Wind will not appear if FTP is down
Time series of cyclone Minimum Central Pressure will not appear if FTP is down

top of page Track Data:Position

jtwc_sh bom neumann
Date Lat Lon Lat Lon Lat Lon
1992-04-04 18:00:00 -8.3 131.6 -8.3 131.6
1992-04-05 00:00:00 -8.5 132.0 -8.5 132.0
1992-04-05 06:00:00 -8.7 132.4 -8.7 132.4
1992-04-05 12:00:00 -8.9 132.8 -8.9 132.8
1992-04-05 18:00:00 -9.2 133.1 -9.2 133.1
1992-04-06 00:00:00 -9.5 133.4 -9.5 133.4
1992-04-06 06:00:00 -9.8 133.6 -9.8 133.6
1992-04-06 12:00:00 -10.1 133.5 -10.1 133.5
1992-04-06 18:00:00 -10.3 133.2 -10.3 133.2
1992-04-07 00:00:00 -10.4 132.8 -10.7 132.8 -10.4 132.8
1992-04-07 06:00:00 -10.6 132.3 -10.8 132.4 -10.6 132.3
1992-04-07 12:00:00 -10.8 131.7 -10.9 131.7 -10.8 131.7
1992-04-07 18:00:00 -11.0 131.0 -11.1 130.9 -11.0 131.0
1992-04-08 00:00:00 -11.1 130.3 -11.3 130.3 -11.1 130.3
1992-04-08 06:00:00 -11.1 129.7 -11.3 129.4 -11.1 129.7
1992-04-08 12:00:00 -11.2 129.2 -11.2 129.1 -11.2 129.2
1992-04-08 18:00:00 -11.3 128.8 -11.3 128.8 -11.3 128.8
1992-04-09 00:00:00 -11.4 128.5 -11.5 128.4 -11.4 128.5
1992-04-09 06:00:00 -11.5 128.3 -11.6 128.4 -11.5 128.3
1992-04-09 12:00:00 -11.6 128.2 -11.5 128.3 -11.6 128.2
1992-04-09 18:00:00 -11.6 128.1 -11.5 128.1 -11.6 128.1
1992-04-10 00:00:00 -11.6 128.0 -11.6 128.0 -11.6 128.0
1992-04-10 06:00:00 -11.6 127.8 -11.8 127.7 -11.6 127.8
1992-04-10 12:00:00 -11.7 127.5 -11.6 127.3 -11.7 127.5
1992-04-10 18:00:00 -11.8 127.2 -11.8 126.8 -11.8 127.2
jtwc_sh bom neumann
1992-04-11 00:00:00 -11.9 127.0 -11.9 126.4 -11.9 127.0
1992-04-11 06:00:00 -12.0 126.7 -11.9 125.9 -12.0 126.7
1992-04-11 12:00:00 -12.1 126.4 -11.9 125.6 -12.1 126.4
1992-04-11 18:00:00 -12.2 126.2 -11.9 125.5 -12.2 126.2
1992-04-12 00:00:00 -12.2 126.0 -11.9 125.4 -12.2 126.0
1992-04-12 06:00:00 -12.3 125.7 -11.9 125.3 -12.3 125.7
1992-04-12 12:00:00 -12.4 125.5 -12.1 125.3 -12.4 125.5
1992-04-12 18:00:00 -12.5 125.3 -12.2 125.3 -12.5 125.3
1992-04-13 00:00:00 -12.7 125.1 -12.5 125.2 -12.7 125.1
1992-04-13 06:00:00 -12.9 124.9 -12.9 124.9
1992-04-13 12:00:00 -13.0 124.7 -13.0 124.7
1992-04-13 18:00:00 -13.1 124.5 -13.1 124.5
1992-04-14 00:00:00 -13.3 124.4 -13.3 124.4
1992-04-14 06:00:00 -13.5 124.3 -13.5 124.3
1992-04-14 12:00:00 -13.6 124.1 -13.6 124.1
1992-04-14 18:00:00 -13.7 123.8 -13.7 123.8
1992-04-15 00:00:00 -13.8 123.5 -13.8 123.5
1992-04-15 06:00:00 -13.9 123.2 -13.9 123.2
1992-04-15 12:00:00 -14.0 123.0 -14.0 123.0

top of pageTrack Data:Intensity

jtwc_sh bom neumann
Date Wind Pres Wind Pres Wind Pres
1992-04-04 18:00:00 20. 20.
1992-04-05 00:00:00 20. 20.
1992-04-05 06:00:00 25. 25.
1992-04-05 12:00:00 25. 25.
1992-04-05 18:00:00 30. 30.
1992-04-06 00:00:00 30. 30.
1992-04-06 06:00:00 35. 35.
1992-04-06 12:00:00 35. 35.
1992-04-06 18:00:00 40. 40.
1992-04-07 00:00:00 45. 45. 994. 45.
1992-04-07 06:00:00 50. 45. 988. 50.
1992-04-07 12:00:00 55. 45. 987. 55.
1992-04-07 18:00:00 65. 50. 986. 65.
1992-04-08 00:00:00 80. 60. 975. 80.
1992-04-08 06:00:00 95. 65. 965. 95.
1992-04-08 12:00:00 105. 80. 950. 105.
1992-04-08 18:00:00 115. 85. 945. 115.
1992-04-09 00:00:00 120. 80. 950. 120.
1992-04-09 06:00:00 120. 80. 950. 120.
1992-04-09 12:00:00 120. 75. 954. 120.
1992-04-09 18:00:00 115. 70. 958. 115.
1992-04-10 00:00:00 115. 70. 960. 115.
1992-04-10 06:00:00 110. 65. 962. 110.
1992-04-10 12:00:00 105. 65. 966. 105.
1992-04-10 18:00:00 100. 65. 970. 100.
jtwc_sh bom neumann
1992-04-11 00:00:00 95. 60. 972. 95.
1992-04-11 06:00:00 90. 60. 974. 90.
1992-04-11 12:00:00 85. 60. 976. 85.
1992-04-11 18:00:00 80. 55. 978. 80.
1992-04-12 00:00:00 75. 50. 980. 75.
1992-04-12 06:00:00 70. 45. 982. 70.
1992-04-12 12:00:00 65. 40. 984. 65.
1992-04-12 18:00:00 60. 35. 988. 60.
1992-04-13 00:00:00 55. 35. 994. 55.
1992-04-13 06:00:00 50. 50.
1992-04-13 12:00:00 45. 45.
1992-04-13 18:00:00 40. 40.
1992-04-14 00:00:00 35. 35.
1992-04-14 06:00:00 30. 30.
1992-04-14 12:00:00 30. 30.
1992-04-14 18:00:00 30. 30.
1992-04-15 00:00:00 25. 25.
1992-04-15 06:00:00 25. 25.
1992-04-15 12:00:00 20. 20.

top of page Links to source data

Source Source file Format
jtwc_sh bsh281992.txt ATCF
bom Newcyclonedatabase-08repair.csv:Line=16374:NEVILLE CSV file (from Excel file)
neumann tracks.sh:Storm=950:NEVILLE:BSH281992:JTWC&BM612 HURDAT